createdAt,value
2023-05-02T00:03:09.426Z,68.56
2023-05-02T00:08:33.548Z,69.22
2023-05-02T00:13:57.753Z,69.58
2023-05-02T00:19:22.794Z,69.96
2023-05-02T00:24:47.651Z,70.23
2023-05-02T00:30:12.756Z,70.19
2023-05-02T00:35:37.163Z,69.20
2023-05-02T00:41:01.390Z,68.64
2023-05-02T00:46:25.921Z,68.25
2023-05-02T00:51:50.752Z,67.37
2023-05-02T00:57:16.151Z,66.53
2023-05-02T01:02:51.884Z,66.02
2023-05-02T01:08:29.316Z,66.23
2023-05-02T01:13:55.254Z,66.48
2023-05-02T01:19:29.891Z,66.62
2023-05-02T01:25:06.399Z,67.18
2023-05-02T01:30:34.460Z,68.97
2023-05-02T01:36:02.473Z,70.69
2023-05-02T01:41:28.370Z,71.14
2023-05-02T01:46:55.311Z,71.48
2023-05-02T01:52:23.331Z,72.05
2023-05-02T01:57:51.236Z,72.21
2023-05-02T02:03:18.501Z,72.27
2023-05-02T02:08:43.564Z,72.80
2023-05-02T02:14:12.848Z,73.60
2023-05-02T02:19:39.892Z,73.97
2023-05-02T02:25:11.880Z,73.98
2023-05-02T02:30:37.127Z,74.15
2023-05-02T02:36:11.857Z,74.41
2023-05-02T02:41:49.174Z,74.62
2023-05-02T02:47:27.852Z,75.31
2023-05-02T02:53:01.058Z,75.97
2023-05-02T02:58:52.418Z,76.76
2023-05-02T03:04:19.314Z,77.08
2023-05-02T03:09:48.353Z,77.41
2023-05-02T03:15:30.697Z,77.61
2023-05-02T03:20:55.958Z,77.88
2023-05-02T03:26:20.150Z,78.18
2023-05-02T03:31:46.454Z,78.14
2023-05-02T03:37:12.262Z,78.13
2023-05-02T03:42:40.437Z,78.27
2023-05-02T03:48:06.897Z,78.23
2023-05-02T03:53:32.325Z,78.16
2023-05-02T03:58:57.262Z,78.06
2023-05-02T04:04:21.796Z,77.74
2023-05-02T04:09:48.766Z,77.74
2023-05-02T04:15:14.657Z,77.78
2023-05-02T04:20:40.409Z,77.61
2023-05-02T04:26:04.846Z,77.58
2023-05-02T04:31:35.550Z,77.44
2023-05-02T04:37:01.715Z,77.27
2023-05-02T04:42:27.947Z,77.02
2023-05-02T04:48:12.960Z,76.56
2023-05-02T04:53:38.797Z,76.07
2023-05-02T04:59:03.374Z,75.94
2023-05-02T05:04:28.460Z,75.78
2023-05-02T05:09:57.007Z,75.45
2023-05-02T05:15:26.347Z,75.22
2023-05-02T05:20:55.148Z,75.03
2023-05-02T05:26:20.093Z,74.69
2023-05-02T05:31:45.908Z,74.45
2023-05-02T05:37:12.518Z,74.10
2023-05-02T05:42:38.013Z,73.67
2023-05-02T05:48:08.040Z,73.26
2023-05-02T05:53:38.580Z,72.80
2023-05-02T05:59:05.884Z,72.43
2023-05-02T06:04:30.706Z,72.03
2023-05-02T06:09:55.220Z,71.88
2023-05-02T06:15:19.503Z,71.24
2023-05-02T06:20:44.055Z,70.79
2023-05-02T06:26:08.794Z,70.46
2023-05-02T06:31:33.745Z,70.10
2023-05-02T06:36:57.849Z,69.68
2023-05-02T06:42:22.398Z,69.36
2023-05-02T06:47:46.953Z,68.82
2023-05-02T06:53:12.175Z,68.63
2023-05-02T06:58:36.900Z,68.17
2023-05-02T07:04:04.808Z,67.51
2023-05-02T07:09:29.268Z,66.97
2023-05-02T07:14:53.401Z,67.33
2023-05-02T07:20:17.912Z,66.76
2023-05-02T07:25:42.353Z,65.84
2023-05-02T07:31:06.717Z,65.00
2023-05-02T07:36:31.805Z,65.26
2023-05-02T07:41:56.306Z,64.52
2023-05-02T07:47:21.066Z,64.07
2023-05-02T07:52:45.383Z,63.80
2023-05-02T07:58:09.829Z,63.52
2023-05-02T08:03:34.553Z,63.43
2023-05-02T08:09:02.407Z,63.10
2023-05-02T08:14:26.835Z,62.16
2023-05-02T08:19:51.587Z,62.37
2023-05-02T08:25:15.709Z,62.12
2023-05-02T08:30:40.154Z,61.75
2023-05-02T08:36:15.487Z,61.25
2023-05-02T08:41:41.091Z,60.62
2023-05-02T08:47:07.271Z,59.91
2023-05-02T08:52:34.152Z,59.09
2023-05-02T08:57:59.039Z,58.16
2023-05-02T09:03:36.932Z,56.00
2023-05-02T09:09:05.064Z,56.86
2023-05-02T09:14:30.142Z,57.27
2023-05-02T09:20:01.742Z,55.90
2023-05-02T09:25:26.168Z,55.49
2023-05-02T09:30:51.106Z,55.17
2023-05-02T09:36:21.121Z,54.60
2023-05-02T09:41:48.532Z,53.78
2023-05-02T09:47:25.850Z,53.56
2023-05-02T09:53:11.581Z,52.79
2023-05-02T09:58:36.532Z,51.64
2023-05-02T10:04:01.160Z,51.81
2023-05-02T10:09:26.481Z,51.14
2023-05-02T10:14:58.613Z,50.68
2023-05-02T10:20:36.001Z,50.06
2023-05-02T10:26:00.649Z,48.15
2023-05-02T10:31:25.536Z,48.07
2023-05-02T10:36:50.364Z,48.24
2023-05-02T10:42:15.293Z,47.80
2023-05-02T10:47:41.162Z,47.69
2023-05-02T10:53:25.238Z,46.73
2023-05-02T10:58:51.458Z,46.49
2023-05-02T11:04:15.699Z,46.63
2023-05-02T11:09:40.553Z,45.69
2023-05-02T11:15:09.063Z,46.68
2023-05-02T11:20:36.046Z,45.85
2023-05-02T11:26:01.433Z,46.39
2023-05-02T11:31:28.489Z,46.46
2023-05-02T11:36:53.139Z,46.44
2023-05-02T11:42:30.666Z,45.56
2023-05-02T11:47:58.418Z,46.37
2023-05-02T11:53:30.034Z,46.74
2023-05-02T11:59:03.515Z,47.41
2023-05-02T12:04:28.526Z,46.97
2023-05-02T12:09:54.211Z,46.90
2023-05-02T12:15:19.129Z,46.51
2023-05-02T12:20:44.221Z,45.82
2023-05-02T12:26:22.767Z,46.49
2023-05-02T12:31:54.344Z,46.86
2023-05-02T12:37:24.646Z,47.44
2023-05-02T12:43:04.481Z,47.69
2023-05-02T12:48:28.896Z,47.33
2023-05-02T12:53:54.181Z,47.43
2023-05-02T12:59:32.914Z,46.84
2023-05-02T13:04:57.981Z,46.88
2023-05-02T13:10:23.459Z,46.03
2023-05-02T13:15:48.121Z,46.10
2023-05-02T13:21:12.956Z,46.84
2023-05-02T13:26:37.832Z,46.36
2023-05-02T13:32:02.464Z,45.78
2023-05-02T13:37:27.549Z,46.04
2023-05-02T13:42:51.556Z,45.90
2023-05-02T13:48:16.404Z,46.07
2023-05-02T13:53:41.120Z,46.43
2023-05-02T13:59:07.348Z,47.14
2023-05-02T14:04:34.324Z,47.93
2023-05-02T14:10:00.662Z,49.63
2023-05-02T14:15:27.258Z,50.70
2023-05-02T14:20:52.175Z,51.10
2023-05-02T14:26:16.986Z,51.49
2023-05-02T14:31:41.512Z,51.33
2023-05-02T14:37:06.638Z,50.45
2023-05-02T14:42:31.185Z,50.41
2023-05-02T14:47:56.407Z,50.58
2023-05-02T14:53:21.938Z,50.79
2023-05-02T14:58:46.977Z,50.92
2023-05-02T15:04:12.978Z,50.75
2023-05-02T15:09:38.351Z,50.61
2023-05-02T15:15:03.643Z,50.33
2023-05-02T15:20:27.947Z,51.28
2023-05-02T15:25:52.089Z,51.53
2023-05-02T15:31:16.323Z,51.61
2023-05-02T15:36:41.001Z,52.24
2023-05-02T15:42:06.547Z,52.48
2023-05-02T15:47:31.282Z,52.13
2023-05-02T15:52:56.192Z,52.29
2023-05-02T15:58:20.465Z,52.45
2023-05-02T16:03:45.719Z,52.02
2023-05-02T16:09:11.098Z,52.74
2023-05-02T16:14:36.007Z,52.41
2023-05-02T16:20:01.251Z,52.01
2023-05-02T16:25:25.512Z,52.14
2023-05-02T16:30:49.860Z,52.07
2023-05-02T16:36:15.149Z,52.11
2023-05-02T16:41:39.809Z,52.62
2023-05-02T16:47:04.604Z,53.07
2023-05-02T16:52:29.747Z,53.40
2023-05-02T16:57:54.228Z,54.16
2023-05-02T17:03:18.216Z,54.21
2023-05-02T17:08:42.567Z,54.94
2023-05-02T17:14:06.799Z,55.69
2023-05-02T17:19:31.890Z,56.50
2023-05-02T17:24:56.873Z,57.79
2023-05-02T17:30:21.756Z,58.53
2023-05-02T17:35:46.027Z,58.96
2023-05-02T17:41:10.268Z,59.67
2023-05-02T17:46:34.437Z,59.74
2023-05-02T17:51:59.088Z,60.22
2023-05-02T17:57:23.566Z,60.56
2023-05-02T18:02:48.203Z,61.06
2023-05-02T18:08:12.644Z,61.32
2023-05-02T18:13:37.823Z,61.65
2023-05-02T18:19:02.500Z,62.01
2023-05-02T18:24:39.575Z,62.61
2023-05-02T18:30:05.105Z,63.24
2023-05-02T18:35:29.422Z,64.41
2023-05-02T18:40:53.909Z,64.97
2023-05-02T18:46:18.206Z,65.11
2023-05-02T18:51:43.578Z,65.34
2023-05-02T18:57:08.312Z,65.69
2023-05-02T19:02:33.466Z,66.00
2023-05-02T19:07:58.168Z,66.16
2023-05-02T19:13:22.805Z,66.33
2023-05-02T19:18:47.298Z,66.56
2023-05-02T19:24:11.745Z,66.79
2023-05-02T19:29:36.229Z,67.13
2023-05-02T19:35:02.106Z,67.19
2023-05-02T19:40:29.170Z,67.20
2023-05-02T19:45:55.266Z,67.23
2023-05-02T19:51:25.963Z,67.13
2023-05-02T19:56:52.030Z,67.23
2023-05-02T20:02:22.397Z,67.55
2023-05-02T20:07:47.860Z,67.31
2023-05-02T20:13:12.398Z,67.17
2023-05-02T20:18:36.596Z,67.07
2023-05-02T20:24:00.737Z,66.60
2023-05-02T20:29:25.698Z,66.34
2023-05-02T20:34:50.080Z,66.10
2023-05-02T20:40:15.027Z,65.29
2023-05-02T20:45:40.270Z,65.08
2023-05-02T20:51:04.497Z,65.01
2023-05-02T20:56:28.274Z,64.93
2023-05-02T21:01:52.376Z,64.63
2023-05-02T21:07:17.150Z,64.70
2023-05-02T21:12:41.420Z,64.51
2023-05-02T21:18:06.388Z,64.20
2023-05-02T21:23:30.485Z,64.02
2023-05-02T21:28:55.029Z,64.40
2023-05-02T21:34:19.890Z,64.65
2023-05-02T21:39:44.338Z,64.51
2023-05-02T21:45:09.536Z,64.60
2023-05-02T21:50:34.303Z,64.61
2023-05-02T21:55:58.244Z,64.69
2023-05-02T22:07:39.663Z,64.73
2023-05-02T22:13:04.852Z,64.72
2023-05-02T22:18:29.317Z,64.53
2023-05-02T22:23:53.742Z,64.71
2023-05-02T22:29:17.849Z,64.83
2023-05-02T22:34:41.664Z,64.88
2023-05-02T22:40:08.754Z,64.91
2023-05-02T22:45:34.178Z,64.63
2023-05-02T22:50:58.655Z,64.57
2023-05-02T22:56:22.782Z,64.89
2023-05-02T23:01:46.893Z,64.89
2023-05-02T23:07:11.372Z,64.82
2023-05-02T23:12:35.780Z,64.89
2023-05-02T23:18:00.691Z,64.68
2023-05-02T23:23:24.746Z,64.83
2023-05-02T23:28:48.845Z,64.85
2023-05-02T23:34:12.908Z,64.95
2023-05-02T23:39:37.121Z,64.99
2023-05-02T23:45:01.561Z,64.91
2023-05-02T23:50:26.044Z,65.12
2023-05-02T23:55:50.627Z,65.27
